Time;durP1;ratioP1;P1;durP2;ratioP2;P2;SDS_P1;SDS_P2;PMS_P1;PMS_P2;Temp;Humidity;BMP_temperature;BMP_pressure;BME280_temperature;BME280_humidity;BME280_pressure;Samples;Min_cycle;Max_cycle;Signal;HPM_P1;HPM_P2
2023/05/31 00:00:35;;;;;;;3.87;2.70;;;19.00;31.70;;;;;;20506;6847;304203;-78
2023/05/31 00:03:02;;;;;;;4.70;2.70;;;19.00;31.50;;;;;;20495;6847;308638;-76
2023/05/31 00:05:28;;;;;;;2.53;2.33;;;19.00;31.70;;;;;;20713;6847;117111;-76
2023/05/31 00:07:54;;;;;;;4.70;2.73;;;19.00;31.60;;;;;;20480;6847;423373;-76
2023/05/31 00:10:19;;;;;;;3.07;2.40;;;19.00;31.50;;;;;;20701;6847;118024;-76
2023/05/31 00:12:45;;;;;;;2.87;2.67;;;18.90;31.80;;;;;;20709;6847;117574;-76
2023/05/31 00:15:10;;;;;;;3.40;2.25;;;18.60;32.00;;;;;;20708;6847;118052;-76
2023/05/31 00:17:36;;;;;;;2.90;2.55;;;18.40;32.30;;;;;;20481;6847;312596;-76
2023/05/31 00:20:02;;;;;;;3.20;2.72;;;18.90;31.60;;;;;;20500;6847;279016;-76
2023/05/31 00:22:28;;;;;;;3.37;2.47;;;18.90;31.50;;;;;;20699;6847;117381;-76
2023/05/31 00:24:55;;;;;;;4.47;2.92;;;18.80;31.60;;;;;;20491;6847;307244;-76
2023/05/31 00:27:19;;;;;;;4.30;2.53;;;18.90;31.40;;;;;;20481;6847;308067;-76
2023/05/31 00:29:45;;;;;;;3.20;2.70;;;19.10;31.10;;;;;;20465;6847;278077;-76
2023/05/31 00:32:11;;;;;;;2.57;2.37;;;19.00;31.70;;;;;;20698;6847;117856;-75
2023/05/31 00:34:36;;;;;;;3.40;2.40;;;19.00;31.00;;;;;;20706;6847;117671;-76
2023/05/31 00:37:03;;;;;;;2.87;2.30;;;18.70;31.70;;;;;;20710;6847;117193;-75
2023/05/31 00:39:30;;;;;;;3.07;2.50;;;18.20;32.70;;;;;;20695;6847;117415;-76
2023/05/31 00:41:55;;;;;;;2.57;2.33;;;18.20;32.70;;;;;;20689;6847;123669;-76
2023/05/31 00:44:21;;;;;;;3.43;2.77;;;18.00;32.50;;;;;;20493;6847;337354;-76
2023/05/31 00:46:46;;;;;;;4.03;2.57;;;18.20;32.30;;;;;;20713;6847;118118;-76
2023/05/31 00:49:12;;;;;;;3.47;2.70;;;18.20;32.00;;;;;;20500;6847;317740;-76
2023/05/31 00:51:38;;;;;;;2.93;2.60;;;18.40;31.60;;;;;;20478;6847;290207;-76
2023/05/31 00:54:04;;;;;;;2.50;2.30;;;18.70;31.20;;;;;;20708;6846;117924;-76
2023/05/31 00:56:30;;;;;;;3.83;2.83;;;18.60;31.60;;;;;;20493;6847;307272;-76
2023/05/31 00:58:56;;;;;;;3.20;2.60;;;18.90;30.30;;;;;;20499;6847;278003;-76
2023/05/31 01:01:21;;;;;;;3.87;2.53;;;18.90;30.30;;;;;;20695;6847;117116;-76
2023/05/31 01:03:47;;;;;;;3.08;2.70;;;18.70;30.90;;;;;;20476;6847;286750;-76
2023/05/31 01:06:14;;;;;;;4.10;2.60;;;18.80;30.40;;;;;;20498;6847;283056;-76
2023/05/31 01:08:40;;;;;;;3.08;2.70;;;19.00;30.20;;;;;;20481;6847;340698;-78
2023/05/31 01:11:25;;;;;;;5.43;2.50;;;19.20;30.00;;;;;;20701;6847;122918;-76
2023/05/31 01:14:00;;;;;;;2.60;2.40;;;18.90;30.50;;;;;;20678;6847;118063;-76
2023/05/31 01:16:26;;;;;;;4.53;2.50;;;18.50;31.10;;;;;;20713;6847;118335;-75
2023/05/31 01:18:55;;;;;;;4.20;2.70;;;18.20;31.60;;;;;;20482;6847;278957;-76
2023/05/31 01:21:20;;;;;;;2.73;2.10;;;18.30;31.10;;;;;;20697;6847;118698;-76
2023/05/31 01:23:53;;;;;;;2.60;2.40;;;18.20;31.30;;;;;;20662;6847;121496;-76
2023/05/31 01:26:45;;;;;;;2.77;2.57;;;18.00;31.50;;;;;;20484;6847;117248;-76
2023/05/31 01:29:14;;;;;;;3.67;2.47;;;17.80;31.80;;;;;;20699;6847;116596;-76
2023/05/31 01:31:40;;;;;;;2.67;2.47;;;17.80;31.60;;;;;;20464;6847;278754;-76
2023/05/31 01:34:05;;;;;;;3.07;2.80;;;17.80;31.60;;;;;;20485;6847;277919;-76
2023/05/31 01:36:32;;;;;;;3.25;2.78;;;18.20;30.90;;;;;;20488;6847;279137;-76
2023/05/31 01:38:56;;;;;;;3.13;2.60;;;18.50;30.60;;;;;;20699;6847;117698;-75
2023/05/31 01:41:22;;;;;;;4.03;2.87;;;18.30;30.60;;;;;;20493;6847;282695;-76
2023/05/31 01:43:48;;;;;;;3.43;2.57;;;18.40;30.60;;;;;;20464;6847;307631;-76
2023/05/31 01:46:13;;;;;;;2.80;2.60;;;18.60;30.30;;;;;;20494;6847;307607;-76
2023/05/31 01:48:39;;;;;;;2.60;2.40;;;18.80;30.10;;;;;;20692;6847;119657;-76
2023/05/31 01:51:05;;;;;;;2.80;2.23;;;18.50;30.40;;;;;;20700;6847;117629;-76
2023/05/31 01:53:31;;;;;;;3.23;2.30;;;18.10;30.90;;;;;;20701;6847;117214;-76
2023/05/31 01:55:57;;;;;;;2.47;2.27;;;17.80;31.40;;;;;;20689;6847;117783;-76
2023/05/31 01:58:22;;;;;;;4.97;2.47;;;17.60;31.60;;;;;;20687;6847;117174;-76
2023/05/31 02:00:48;;;;;;;3.10;2.80;;;17.40;31.90;;;;;;20469;6847;308386;-78
2023/05/31 02:03:14;;;;;;;3.20;2.90;;;18.00;31.90;;;;;;20488;6847;311663;-76
2023/05/31 02:05:59;;;;;;;2.70;2.50;;;18.00;31.20;;;;;;20469;6846;295325;-76
2023/05/31 02:08:26;;;;;;;2.40;2.20;;;18.20;30.80;;;;;;20701;6847;117142;-76
2023/05/31 02:10:54;;;;;;;3.42;2.92;;;18.00;30.80;;;;;;20490;6847;333063;-76
2023/05/31 02:13:20;;;;;;;4.30;2.20;;;18.00;30.80;;;;;;20696;6847;117790;-77
2023/05/31 02:15:46;;;;;;;3.15;2.70;;;17.90;31.00;;;;;;20474;6847;307246;-77
2023/05/31 02:18:12;;;;;;;2.47;2.37;;;17.90;31.00;;;;;;20695;6847;117441;-76
2023/05/31 02:20:37;;;;;;;2.90;2.70;;;17.80;31.40;;;;;;20494;6847;308787;-76
2023/05/31 02:23:02;;;;;;;2.43;2.33;;;17.90;30.90;;;;;;20703;6847;117220;-78
2023/05/31 02:25:29;;;;;;;3.90;2.83;;;17.80;31.10;;;;;;20494;6847;307753;-77
2023/05/31 02:27:54;;;;;;;5.03;2.30;;;17.80;31.10;;;;;;20689;6847;192791;-76
2023/05/31 02:30:20;;;;;;;2.33;2.13;;;17.70;31.40;;;;;;20703;6847;117581;-76
2023/05/31 02:32:45;;;;;;;2.83;2.63;;;17.40;31.90;;;;;;20490;6847;300111;-76
2023/05/31 02:35:11;;;;;;;2.40;2.20;;;17.50;31.50;;;;;;20704;6847;117199;-76
2023/05/31 02:37:37;;;;;;;3.17;2.73;;;17.70;31.10;;;;;;20467;6847;307691;-77
2023/05/31 02:40:09;;;;;;;2.90;2.63;;;17.60;31.00;;;;;;20481;6847;307790;-77
2023/05/31 02:42:34;;;;;;;2.30;2.10;;;17.90;30.60;;;;;;20700;6847;117139;-76
2023/05/31 02:45:00;;;;;;;2.43;2.23;;;17.80;31.10;;;;;;20680;6847;116761;-76
2023/05/31 02:47:27;;;;;;;3.73;2.40;;;17.50;31.50;;;;;;20707;6847;117192;-76
2023/05/31 02:49:51;;;;;;;3.60;2.50;;;17.20;31.70;;;;;;20680;6847;117351;-76
2023/05/31 02:52:17;;;;;;;3.13;2.70;;;17.00;32.00;;;;;;20495;6847;278828;-76
2023/05/31 02:54:42;;;;;;;3.00;2.67;;;17.20;31.50;;;;;;20495;6847;337076;-76
2023/05/31 02:57:09;;;;;;;3.10;2.60;;;17.90;30.50;;;;;;20478;6847;308705;-76
2023/05/31 02:59:34;;;;;;;2.97;2.43;;;17.80;30.40;;;;;;20696;6847;124126;-77
2023/05/31 03:02:00;;;;;;;2.97;2.70;;;17.70;30.90;;;;;;20488;6847;307186;-76
2023/05/31 03:04:25;;;;;;;5.47;2.77;;;17.70;30.60;;;;;;20483;6847;307810;-77
2023/05/31 03:06:53;;;;;;;3.00;2.37;;;17.70;30.80;;;;;;20701;6847;117642;-76
2023/05/31 03:09:18;;;;;;;4.10;2.43;;;17.70;30.80;;;;;;20706;6847;117849;-76
2023/05/31 03:11:44;;;;;;;3.03;2.40;;;17.30;31.30;;;;;;20468;6847;311741;-75
2023/05/31 03:14:10;;;;;;;2.17;2.07;;;17.40;31.00;;;;;;20700;6847;117418;-76
2023/05/31 03:16:36;;;;;;;2.30;2.17;;;17.10;31.90;;;;;;20701;6847;118316;-76
2023/05/31 03:19:03;;;;;;;3.63;2.50;;;17.10;31.70;;;;;;20494;6845;316226;-76
2023/05/31 03:21:29;;;;;;;3.90;2.30;;;17.20;31.20;;;;;;20690;6847;117096;-76
2023/05/31 03:23:54;;;;;;;2.47;2.27;;;17.20;31.60;;;;;;20687;6847;117562;-76
2023/05/31 03:26:20;;;;;;;2.83;2.50;;;17.00;32.00;;;;;;20491;6847;307567;-75
2023/05/31 03:28:45;;;;;;;2.50;2.30;;;17.10;31.30;;;;;;20696;6847;117173;-76
2023/05/31 03:31:12;;;;;;;2.77;2.53;;;17.10;31.60;;;;;;20492;6847;312705;-75
2023/05/31 03:33:38;;;;;;;2.80;2.27;;;17.20;31.30;;;;;;20681;6847;121503;-76
2023/05/31 03:36:04;;;;;;;2.57;2.13;;;17.20;31.50;;;;;;20706;6847;120289;-76
2023/05/31 03:38:31;;;;;;;2.50;2.20;;;16.70;32.40;;;;;;20699;6847;117743;-76
2023/05/31 03:40:56;;;;;;;2.20;2.00;;;16.60;32.20;;;;;;20699;6847;117088;-76
2023/05/31 03:43:23;;;;;;;2.50;2.20;;;16.50;32.60;;;;;;20705;6847;118343;-76
2023/05/31 03:45:51;;;;;;;2.30;2.10;;;16.40;32.90;;;;;;20682;6847;119351;-75
2023/05/31 03:48:17;;;;;;;2.93;2.33;;;16.30;33.30;;;;;;20712;6847;117729;-76
2023/05/31 03:50:42;;;;;;;2.70;2.30;;;16.20;33.20;;;;;;20702;6847;117469;-75
2023/05/31 03:53:10;;;;;;;2.83;2.30;;;16.20;33.30;;;;;;20706;6847;117567;-76
2023/05/31 03:55:37;;;;;;;3.00;2.75;;;16.10;33.60;;;;;;20478;6847;311911;-78
2023/05/31 03:58:02;;;;;;;2.85;2.62;;;16.50;32.90;;;;;;20474;6847;308263;-76
2023/05/31 04:00:28;;;;;;;2.50;2.33;;;16.90;32.30;;;;;;20493;6847;277774;-75
2023/05/31 04:02:53;;;;;;;5.03;2.40;;;17.30;31.80;;;;;;20698;6847;118087;-75
2023/05/31 04:05:19;;;;;;;2.77;2.50;;;17.20;32.10;;;;;;20705;6847;116358;-75
2023/05/31 04:07:45;;;;;;;4.20;2.47;;;16.90;32.50;;;;;;20472;6847;308469;-75
2023/05/31 04:10:10;;;;;;;2.33;2.10;;;17.10;32.20;;;;;;20696;6847;117419;-75
2023/05/31 04:12:36;;;;;;;3.80;2.50;;;17.20;32.20;;;;;;20486;6847;312287;-75
2023/05/31 04:15:02;;;;;;;2.33;2.17;;;17.20;32.60;;;;;;20699;6847;117901;-75
2023/05/31 04:17:27;;;;;;;3.97;2.17;;;17.20;32.50;;;;;;20703;6847;117111;-75
2023/05/31 04:19:53;;;;;;;2.20;2.10;;;17.00;32.90;;;;;;20682;6847;123329;-75
2023/05/31 04:22:20;;;;;;;3.45;2.15;;;16.80;33.50;;;;;;20705;6847;117732;-75
2023/05/31 04:24:45;;;;;;;3.65;2.37;;;16.70;34.10;;;;;;20486;6847;308166;-75
2023/05/31 04:27:10;;;;;;;2.33;2.13;;;17.00;33.10;;;;;;20696;6847;117136;-75
2023/05/31 04:29:37;;;;;;;2.78;2.58;;;17.10;33.60;;;;;;20473;6846;307800;-75
2023/05/31 04:32:02;;;;;;;3.20;2.62;;;17.30;32.70;;;;;;20481;6847;333576;-75
2023/05/31 04:34:28;;;;;;;2.83;2.40;;;17.60;32.30;;;;;;20492;6847;324264;-75
2023/05/31 04:36:53;;;;;;;2.60;2.40;;;17.90;31.90;;;;;;20705;6847;117901;-75
2023/05/31 04:39:21;;;;;;;2.10;2.00;;;17.80;32.40;;;;;;20705;6847;117555;-77
2023/05/31 04:41:44;;;;;;;3.50;2.30;;;17.50;32.90;;;;;;20684;6847;117252;-75
2023/05/31 04:44:10;;;;;;;2.50;2.22;;;17.20;33.40;;;;;;20705;6847;117299;-75
2023/05/31 04:46:36;;;;;;;2.33;2.13;;;17.00;33.10;;;;;;20707;6847;117175;-76
2023/05/31 04:49:03;;;;;;;3.50;2.67;;;16.80;33.60;;;;;;20700;6847;117716;-75
2023/05/31 04:51:27;;;;;;;2.78;2.42;;;16.80;33.60;;;;;;20483;6847;308041;-75
2023/05/31 04:53:55;;;;;;;2.90;2.60;;;17.10;33.20;;;;;;20468;6847;308169;-75
2023/05/31 04:56:21;;;;;;;3.10;2.80;;;17.60;32.70;;;;;;20485;6847;341060;-75
2023/05/31 04:58:46;;;;;;;3.43;2.70;;;17.90;32.40;;;;;;20487;6847;342368;-75
2023/05/31 05:01:14;;;;;;;2.80;2.50;;;18.10;31.80;;;;;;20483;6847;307471;-75
2023/05/31 05:03:37;;;;;;;2.70;2.50;;;18.30;31.30;;;;;;20466;6847;312323;-74
2023/05/31 05:06:02;;;;;;;4.50;2.40;;;18.50;31.60;;;;;;20492;6847;283175;-76
2023/05/31 05:08:28;;;;;;;2.60;2.40;;;18.50;31.50;;;;;;20432;6847;312041;-75
2023/05/31 05:10:53;;;;;;;2.50;2.33;;;18.60;31.40;;;;;;20498;6847;308274;-75
2023/05/31 05:13:19;;;;;;;2.43;2.20;;;18.70;31.60;;;;;;20697;6847;117556;-75
2023/05/31 05:15:45;;;;;;;4.03;2.27;;;18.50;32.10;;;;;;20696;6847;118168;-74
2023/05/31 05:18:10;;;;;;;3.27;2.17;;;18.10;32.70;;;;;;20704;6847;117267;-76
2023/05/31 05:20:36;;;;;;;2.72;2.53;;;17.90;33.20;;;;;;20492;6847;341439;-76
2023/05/31 05:23:06;;;;;;;2.50;2.30;;;17.90;33.20;;;;;;20703;6847;117572;-77
2023/05/31 05:25:29;;;;;;;3.20;2.50;;;17.90;33.30;;;;;;20477;6847;290795;-76
2023/05/31 05:27:57;;;;;;;5.70;2.50;;;18.10;33.00;;;;;;20689;6847;119672;-76
2023/05/31 05:30:20;;;;;;;2.97;2.20;;;18.10;33.40;;;;;;20687;6847;117702;-76
2023/05/31 05:32:46;;;;;;;2.70;2.50;;;17.90;33.70;;;;;;20682;6847;117624;-76
2023/05/31 05:35:12;;;;;;;3.67;2.40;;;18.00;33.90;;;;;;20496;6847;296850;-75
2023/05/31 05:37:38;;;;;;;4.20;2.57;;;17.90;33.80;;;;;;20475;6847;307870;-76
2023/05/31 05:40:06;;;;;;;3.37;2.65;;;18.40;33.70;;;;;;20499;6846;337017;-76
2023/05/31 05:42:31;;;;;;;3.20;2.60;;;18.90;32.30;;;;;;20491;6846;278196;-78
2023/05/31 05:44:56;;;;;;;3.63;2.50;;;18.80;33.30;;;;;;20702;6847;118626;-74
2023/05/31 05:47:21;;;;;;;3.00;2.53;;;18.80;32.70;;;;;;20500;6847;307843;-76
2023/05/31 05:49:48;;;;;;;2.70;2.50;;;18.90;33.00;;;;;;20474;6847;307385;-75
2023/05/31 05:52:13;;;;;;;2.60;2.40;;;19.10;32.50;;;;;;20703;6847;117356;-76
2023/05/31 05:54:40;;;;;;;2.63;2.40;;;19.10;32.90;;;;;;20484;6847;296917;-75
2023/05/31 05:57:06;;;;;;;2.53;2.33;;;19.10;32.90;;;;;;20702;6847;119567;-76
2023/05/31 05:59:32;;;;;;;2.80;2.50;;;19.00;33.10;;;;;;20703;6847;117003;-76
2023/05/31 06:01:58;;;;;;;4.73;2.30;;;19.00;33.10;;;;;;20677;6847;117533;-76
2023/05/31 06:04:26;;;;;;;3.47;2.50;;;18.70;33.30;;;;;;20704;6847;117640;-76
2023/05/31 06:06:51;;;;;;;3.13;2.27;;;18.70;33.30;;;;;;20695;6847;117087;-76
2023/05/31 06:09:17;;;;;;;2.50;2.30;;;18.70;33.70;;;;;;20701;6847;116981;-76
2023/05/31 06:11:42;;;;;;;2.80;2.60;;;18.80;33.80;;;;;;20456;6847;278870;-76
2023/05/31 06:14:08;;;;;;;3.83;2.30;;;19.30;33.60;;;;;;20707;6847;119937;-76
2023/05/31 06:16:33;;;;;;;3.30;2.70;;;19.70;33.50;;;;;;20499;6847;311632;-75
2023/05/31 06:19:00;;;;;;;2.70;2.20;;;20.90;32.20;;;;;;20702;6847;117212;-75
2023/05/31 06:21:25;;;;;;;5.53;2.40;;;20.90;32.20;;;;;;20715;6847;118841;-76
2023/05/31 06:23:51;;;;;;;3.37;2.30;;;21.70;32.60;;;;;;20691;6847;119348;-76
2023/05/31 06:26:17;;;;;;;5.03;2.70;;;21.70;32.50;;;;;;20496;6847;278352;-75
2023/05/31 06:28:43;;;;;;;3.47;2.67;;;22.40;29.90;;;;;;20704;6847;117579;-75
2023/05/31 06:31:09;;;;;;;2.87;2.47;;;22.90;30.00;;;;;;20694;6847;117627;-76
2023/05/31 06:33:34;;;;;;;3.92;3.00;;;23.10;30.30;;;;;;20493;6847;313274;-76
2023/05/31 06:36:00;;;;;;;5.13;3.30;;;24.50;28.20;;;;;;20475;6847;308711;-76
2023/05/31 06:38:26;;;;;;;3.00;2.33;;;24.40;28.20;;;;;;20700;6847;117932;-76
2023/05/31 06:40:52;;;;;;;3.37;2.70;;;24.60;29.00;;;;;;20704;6847;117695;-76
2023/05/31 06:43:17;;;;;;;3.30;2.73;;;24.60;29.00;;;;;;20698;6847;117530;-75
2023/05/31 06:45:44;;;;;;;3.70;2.50;;;24.80;29.00;;;;;;20685;6847;121121;-75
2023/05/31 06:48:11;;;;;;;3.55;2.80;;;25.30;27.60;;;;;;20493;6847;331445;-76
2023/05/31 06:50:37;;;;;;;3.75;2.70;;;25.30;27.60;;;;;;20493;6847;307850;-77
2023/05/31 06:53:03;;;;;;;3.63;2.80;;;25.90;27.50;;;;;;20705;6846;116873;-76
2023/05/31 06:55:29;;;;;;;2.80;2.60;;;26.10;27.60;;;;;;20699;6847;117106;-75
2023/05/31 06:57:55;;;;;;;3.97;2.83;;;26.00;27.60;;;;;;20467;6847;314385;-76
2023/05/31 07:00:22;;;;;;;7.57;3.03;;;26.40;26.90;;;;;;20692;6847;117890;-76
2023/05/31 07:02:47;;;;;;;3.13;2.80;;;26.50;27.30;;;;;;20487;6847;305832;-76
2023/05/31 07:05:14;;;;;;;4.20;3.00;;;26.70;26.60;;;;;;20492;6847;336749;-75
2023/05/31 07:07:40;;;;;;;3.62;3.15;;;27.00;26.50;;;;;;20479;6847;308182;-75
2023/05/31 07:10:08;;;;;;;4.47;3.23;;;27.40;25.90;;;;;;20503;6847;278477;-79
2023/05/31 07:12:33;;;;;;;3.75;3.17;;;27.40;25.90;;;;;;20496;6847;337668;-76
2023/05/31 07:14:59;;;;;;;5.57;2.90;;;27.50;26.00;;;;;;20708;6847;121665;-76
2023/05/31 07:17:24;;;;;;;4.03;3.00;;;27.30;26.20;;;;;;20493;6847;312035;-76
2023/05/31 07:19:50;;;;;;;3.80;3.05;;;27.10;26.10;;;;;;20467;6847;307370;-76
2023/05/31 07:22:15;;;;;;;4.83;2.90;;;27.10;25.90;;;;;;20496;6847;278384;-75
2023/05/31 07:24:42;;;;;;;5.90;3.00;;;27.00;26.40;;;;;;20488;6847;281345;-76
2023/05/31 07:27:08;;;;;;;5.83;3.00;;;26.90;26.30;;;;;;20493;6847;283990;-75
2023/05/31 07:29:33;;;;;;;3.80;2.90;;;26.90;26.60;;;;;;20499;6847;278446;-75
2023/05/31 07:32:00;;;;;;;5.32;3.20;;;26.80;26.60;;;;;;20474;6847;325489;-75
2023/05/31 07:34:27;;;;;;;5.93;3.17;;;26.70;26.50;;;;;;20494;6847;308204;-75
2023/05/31 07:36:52;;;;;;;5.03;3.00;;;26.70;27.00;;;;;;20690;6847;117067;-75
2023/05/31 07:39:19;;;;;;;5.35;3.15;;;26.50;27.20;;;;;;20498;6847;307789;-76
2023/05/31 07:41:45;;;;;;;6.07;3.40;;;26.50;27.60;;;;;;20472;6847;308375;-75
2023/05/31 07:44:11;;;;;;;3.72;2.87;;;26.60;26.80;;;;;;20492;6847;325304;-76
2023/05/31 07:46:36;;;;;;;3.10;2.80;;;26.70;26.70;;;;;;20703;6847;123437;-75
2023/05/31 07:49:01;;;;;;;6.57;3.10;;;26.50;27.10;;;;;;20495;6847;282778;-76
2023/05/31 07:51:30;;;;;;;3.47;3.12;;;26.60;26.90;;;;;;20494;6847;309127;-76
2023/05/31 07:53:56;;;;;;;5.57;3.20;;;26.90;26.60;;;;;;20480;6847;278000;-75
2023/05/31 07:56:24;;;;;;;3.27;2.90;;;27.00;26.60;;;;;;20703;6847;117300;-75
2023/05/31 07:58:51;;;;;;;3.70;3.10;;;26.80;26.30;;;;;;20496;6847;285474;-76
2023/05/31 08:01:17;;;;;;;5.72;3.00;;;26.80;26.50;;;;;;20481;6847;336958;-79
2023/05/31 08:03:42;;;;;;;4.73;3.00;;;27.00;26.90;;;;;;20689;6846;123812;-80
2023/05/31 08:06:07;;;;;;;3.27;2.57;;;26.90;27.30;;;;;;20720;6847;118385;-75
2023/05/31 08:08:33;;;;;;;9.67;3.10;;;26.60;27.30;;;;;;20503;6847;279222;-77
2023/05/31 08:10:59;;;;;;;4.93;3.33;;;26.80;27.50;;;;;;20473;6847;278270;-80
2023/05/31 08:13:24;;;;;;;3.90;2.80;;;27.10;26.20;;;;;;20705;6847;117179;-76
2023/05/31 08:15:51;;;;;;;4.63;2.87;;;27.10;26.50;;;;;;20477;6847;278893;-76
2023/05/31 08:18:15;;;;;;;6.90;3.10;;;27.30;26.50;;;;;;20492;6847;282389;-76
2023/05/31 08:20:41;;;;;;;4.13;2.93;;;27.60;26.30;;;;;;20699;6847;117041;-77
2023/05/31 08:23:07;;;;;;;5.10;3.10;;;27.30;26.60;;;;;;20709;6847;117822;-76
2023/05/31 08:39:20;;;;;;;5.20;2.80;;;26.50;26.70;;;;;;21144;6514;92584;-74
2023/05/31 08:41:52;;;;;;;4.12;3.05;;;26.40;26.60;;;;;;20664;6779;276779;-77
2023/05/31 08:44:18;;;;;;;5.37;2.53;;;26.80;26.00;;;;;;20830;6774;121385;-75
2023/05/31 08:46:43;;;;;;;3.63;2.70;;;26.90;25.90;;;;;;20587;6816;308887;-75
2023/05/31 08:49:15;;;;;;;4.57;2.97;;;27.10;26.00;;;;;;20797;6816;117219;-75
2023/05/31 08:51:36;;;;;;;3.20;2.60;;;27.00;25.70;;;;;;20743;6816;117218;-78
2023/05/31 08:54:02;;;;;;;7.00;3.03;;;27.00;25.70;;;;;;20612;6819;121569;-76
2023/05/31 08:56:28;;;;;;;3.95;3.12;;;27.10;25.70;;;;;;20558;6819;337485;-75
2023/05/31 08:58:54;;;;;;;4.07;2.77;;;27.10;25.70;;;;;;20564;6819;278045;-76
2023/05/31 09:01:20;;;;;;;6.40;3.80;;;27.50;25.70;;;;;;20777;6819;116893;-75
2023/05/31 09:03:46;;;;;;;4.97;2.93;;;27.50;25.70;;;;;;20555;6819;310598;-80
2023/05/31 09:06:11;;;;;;;5.93;3.10;;;27.70;25.60;;;;;;20579;6819;316081;-77
2023/05/31 09:08:38;;;;;;;3.97;2.90;;;28.00;24.90;;;;;;20763;6830;117815;-77
2023/05/31 09:11:03;;;;;;;4.73;3.30;;;27.90;24.80;;;;;;20764;6830;117371;-79
2023/05/31 09:13:29;;;;;;;4.27;2.77;;;27.70;24.70;;;;;;20742;6827;117148;-76
2023/05/31 09:15:54;;;;;;;3.50;2.63;;;27.50;25.30;;;;;;20736;6827;173437;-77
2023/05/31 09:18:20;;;;;;;5.82;2.67;;;27.40;25.20;;;;;;20763;6817;121482;-77
2023/05/31 09:20:45;;;;;;;4.47;3.00;;;27.20;25.00;;;;;;20566;6817;277537;-77
2023/05/31 09:23:12;;;;;;;3.00;2.80;;;27.50;25.00;;;;;;20786;6817;119368;-77
2023/05/31 09:25:51;;;;;;;5.90;3.00;;;27.50;25.00;;;;;;20558;6817;307508;-76
2023/05/31 09:28:16;;;;;;;3.63;2.87;;;27.70;24.40;;;;;;20795;6817;121075;-76
2023/05/31 09:30:42;;;;;;;3.07;2.87;;;27.70;24.70;;;;;;20769;6817;117289;-77
2023/05/31 09:33:07;;;;;;;5.00;2.83;;;27.60;25.40;;;;;;20573;6819;278618;-77
2023/05/31 09:35:35;;;;;;;3.60;2.80;;;28.10;24.70;;;;;;20552;6819;310918;-77
2023/05/31 09:38:04;;;;;;;3.97;3.00;;;28.10;24.70;;;;;;20749;6830;117267;-77
2023/05/31 09:40:33;;;;;;;2.90;2.70;;;28.10;24.40;;;;;;20743;6830;117589;-77
2023/05/31 09:42:56;;;;;;;3.17;2.87;;;28.00;24.90;;;;;;20524;6817;307510;-76
2023/05/31 09:45:22;;;;;;;3.78;2.92;;;28.20;24.30;;;;;;20538;6817;310478;-75
2023/05/31 09:47:47;;;;;;;5.97;3.00;;;28.50;24.10;;;;;;20723;6819;117168;-77
2023/05/31 09:50:16;;;;;;;6.53;3.20;;;28.50;23.90;;;;;;20548;6818;309686;-77
2023/05/31 09:52:45;;;;;;;3.40;2.83;;;28.60;23.60;;;;;;20552;6819;311468;-77
2023/05/31 09:55:11;;;;;;;3.10;2.90;;;28.60;23.60;;;;;;20783;6819;116973;-77
2023/05/31 09:57:40;;;;;;;4.43;2.83;;;28.50;23.60;;;;;;20560;6819;277411;-77
2023/05/31 10:00:14;;;;;;;4.63;2.77;;;28.60;23.60;;;;;;20571;6819;307443;-76
2023/05/31 10:02:38;;;;;;;4.10;2.50;;;28.80;23.20;;;;;;20780;6819;117910;-80
2023/05/31 10:05:04;;;;;;;2.73;2.53;;;28.70;23.40;;;;;;20796;6819;119683;-76
2023/05/31 10:07:29;;;;;;;4.70;2.70;;;28.50;23.70;;;;;;20776;6819;118850;-77
2023/05/31 10:09:54;;;;;;;2.90;2.70;;;28.30;23.30;;;;;;20774;6819;121265;-77
2023/05/31 10:12:20;;;;;;;5.28;2.67;;;28.10;24.00;;;;;;20799;6819;117675;-77
2023/05/31 10:14:47;;;;;;;2.90;2.70;;;28.00;24.10;;;;;;20791;6819;123369;-82
2023/05/31 10:17:14;;;;;;;4.40;2.97;;;27.90;24.10;;;;;;20572;6819;307413;-77
2023/05/31 10:19:42;;;;;;;5.40;2.80;;;28.20;24.50;;;;;;20546;6819;311630;-77
2023/05/31 10:22:08;;;;;;;3.63;2.97;;;28.60;23.40;;;;;;20782;6819;117331;-77
2023/05/31 10:24:40;;;;;;;3.87;2.72;;;28.70;23.00;;;;;;20803;6819;117484;-77
2023/05/31 10:27:14;;;;;;;3.03;2.67;;;28.40;23.60;;;;;;20661;6819;117760;-76
2023/05/31 10:29:40;;;;;;;3.07;2.67;;;28.40;23.60;;;;;;20770;6819;148135;-77
2023/05/31 10:32:18;;;;;;;3.65;3.10;;;28.30;23.80;;;;;;20581;6819;310595;-77
2023/05/31 10:34:45;;;;;;;4.68;2.90;;;28.40;23.80;;;;;;20030;6819;334468;-77
2023/05/31 10:37:12;;;;;;;6.20;2.70;;;28.70;23.80;;;;;;20587;6819;278433;-77
2023/05/31 10:39:51;;;;;;;6.07;2.83;;;29.00;23.70;;;;;;20569;6819;311020;-77
2023/05/31 10:42:56;;;;;;;6.43;3.23;;;28.90;23.50;;;;;;20798;6819;117215;-77
2023/05/31 10:45:26;;;;;;;4.43;2.70;;;28.90;23.50;;;;;;20786;6819;119203;-77
2023/05/31 10:48:15;;;;;;;6.17;3.47;;;28.50;24.00;;;;;;20564;6819;282551;-75
2023/05/31 10:50:57;;;;;;;5.82;2.97;;;28.60;24.20;;;;;;19538;7166;322201;-77
2023/05/31 10:53:30;;;;;;;3.87;3.10;;;28.90;24.20;;;;;;19530;7166;325888;-76
2023/05/31 10:56:03;;;;;;;5.97;2.93;;;28.90;24.10;;;;;;19838;6829;121495;-77
2023/05/31 10:58:39;;;;;;;4.40;3.30;;;28.70;23.70;;;;;;20777;6820;119872;-77
2023/05/31 11:01:05;;;;;;;3.70;2.60;;;28.60;23.60;;;;;;20794;6818;117086;-77
2023/05/31 11:03:31;;;;;;;3.00;2.70;;;28.40;23.90;;;;;;20797;6820;122865;-76
2023/05/31 11:05:56;;;;;;;4.13;2.90;;;28.40;23.90;;;;;;20555;6820;307875;-77
2023/05/31 11:08:22;;;;;;;4.77;2.87;;;28.60;23.50;;;;;;20792;6820;116985;-76
2023/05/31 11:10:48;;;;;;;3.57;2.73;;;28.70;23.60;;;;;;20589;6820;277924;-76
2023/05/31 11:13:14;;;;;;;3.13;2.77;;;28.90;23.60;;;;;;20791;6820;117072;-76
2023/05/31 11:15:43;;;;;;;2.97;2.77;;;28.80;23.90;;;;;;20780;6820;117351;-80
2023/05/31 11:18:15;;;;;;;5.97;2.80;;;28.80;23.90;;;;;;20578;6820;307782;-76
2023/05/31 11:20:42;;;;;;;4.20;2.73;;;28.90;23.50;;;;;;20773;6820;117037;-76
2023/05/31 11:23:18;;;;;;;3.00;2.70;;;28.90;24.20;;;;;;20586;6820;312036;-76
2023/05/31 11:25:44;;;;;;;2.73;2.53;;;29.00;22.40;;;;;;20775;6820;119665;-76
2023/05/31 11:28:11;;;;;;;4.50;2.70;;;28.80;22.80;;;;;;20746;6820;118677;-75
2023/05/31 11:30:36;;;;;;;6.90;2.53;;;28.70;23.30;;;;;;20806;6820;117501;-74
2023/05/31 11:33:03;;;;;;;4.10;2.53;;;28.50;23.70;;;;;;20601;6820;277806;-77
2023/05/31 11:35:28;;;;;;;3.73;2.70;;;28.70;23.40;;;;;;20594;6820;339958;-77
2023/05/31 11:37:53;;;;;;;3.13;2.43;;;29.00;22.60;;;;;;20763;6820;123073;-76
2023/05/31 11:40:18;;;;;;;5.17;2.67;;;28.90;22.90;;;;;;20565;6820;306636;-76
2023/05/31 11:42:47;;;;;;;3.80;2.80;;;28.90;23.50;;;;;;20591;6820;302741;-76
2023/05/31 11:45:13;;;;;;;2.83;2.57;;;29.10;23.50;;;;;;20797;6820;117048;-77
2023/05/31 11:48:14;;;;;;;5.30;2.60;;;29.10;22.80;;;;;;20571;6820;306983;-77
2023/05/31 11:50:43;;;;;;;2.70;2.50;;;29.10;22.70;;;;;;20779;6820;122212;-76
2023/05/31 11:53:10;;;;;;;4.10;2.60;;;28.90;22.80;;;;;;20793;6820;117790;-76
2023/05/31 11:55:36;;;;;;;3.97;2.60;;;28.70;23.00;;;;;;20585;6820;281219;-79
2023/05/31 11:58:02;;;;;;;2.60;2.40;;;28.70;22.70;;;;;;20446;6820;276847;-76
2023/05/31 12:00:29;;;;;;;4.73;2.70;;;28.90;22.80;;;;;;20559;6820;307424;-76
2023/05/31 12:02:53;;;;;;;3.63;2.50;;;29.10;22.90;;;;;;20571;6820;277829;-76
2023/05/31 12:05:19;;;;;;;4.45;2.67;;;29.30;22.20;;;;;;20581;6820;307011;-76
2023/05/31 12:07:45;;;;;;;3.10;2.63;;;29.30;22.80;;;;;;20773;6820;117840;-77
2023/05/31 12:10:10;;;;;;;3.20;2.62;;;29.20;22.30;;;;;;20582;6820;277964;-76
2023/05/31 12:12:36;;;;;;;4.87;3.10;;;29.20;22.60;;;;;;20789;6818;119840;-76
2023/05/31 12:15:01;;;;;;;4.57;2.53;;;29.10;22.60;;;;;;20789;6820;117010;-76
2023/05/31 12:17:30;;;;;;;3.10;2.80;;;28.80;22.50;;;;;;20594;6820;281882;-76
2023/05/31 12:19:57;;;;;;;6.23;2.50;;;28.80;22.70;;;;;;20789;6820;117355;-76
2023/05/31 12:22:22;;;;;;;3.47;2.60;;;28.70;22.50;;;;;;20581;6820;307392;-76
2023/05/31 12:24:51;;;;;;;3.40;2.77;;;28.80;22.20;;;;;;20579;6820;309439;-76
2023/05/31 12:27:16;;;;;;;4.70;2.80;;;28.90;22.00;;;;;;20594;6820;304018;-75
2023/05/31 12:29:42;;;;;;;4.37;2.47;;;28.90;21.20;;;;;;20784;6820;117288;-76
2023/05/31 12:32:08;;;;;;;3.23;2.47;;;28.70;21.30;;;;;;20795;6820;117589;-77
2023/05/31 12:34:33;;;;;;;4.57;2.50;;;28.40;21.70;;;;;;20597;6820;309729;-74
2023/05/31 12:37:02;;;;;;;4.23;2.63;;;28.40;22.20;;;;;;20800;6820;116963;-77
2023/05/31 12:39:28;;;;;;;3.47;2.63;;;28.30;22.20;;;;;;20799;6820;116979;-76
2023/05/31 12:41:53;;;;;;;4.30;2.90;;;28.00;22.20;;;;;;20577;6820;277127;-76
2023/05/31 12:44:22;;;;;;;2.77;2.33;;;28.10;22.30;;;;;;20798;6820;117658;-76
2023/05/31 12:46:47;;;;;;;2.20;2.10;;;28.00;22.40;;;;;;20797;6820;115021;-76